createdAt,value
2018-11-23T00:01:54.412Z,47.10
2018-11-23T00:04:23.307Z,46.77
2018-11-23T00:06:52.221Z,44.37
2018-11-23T00:09:21.708Z,43.30
2018-11-23T00:11:50.523Z,36.73
2018-11-23T00:14:19.405Z,37.43
2018-11-23T00:16:48.271Z,37.03
2018-11-23T00:19:17.100Z,35.83
2018-11-23T00:21:45.842Z,32.57
2018-11-23T00:24:14.677Z,34.80
2018-11-23T00:26:43.482Z,32.50
2018-11-23T00:29:12.308Z,31.60
2018-11-23T00:31:41.072Z,30.83
2018-11-23T00:34:09.832Z,31.80
2018-11-23T00:36:38.651Z,30.33
2018-11-23T00:39:08.224Z,31.50
2018-11-23T00:41:37.400Z,31.13
2018-11-23T00:44:06.781Z,27.63
2018-11-23T00:46:35.619Z,32.60
2018-11-23T00:49:04.438Z,32.83
2018-11-23T00:51:33.242Z,30.97
2018-11-23T00:54:02.105Z,31.20
2018-11-23T00:56:30.906Z,28.70
2018-11-23T00:58:59.733Z,27.50
2018-11-23T01:01:32.042Z,23.67
2018-11-23T01:04:00.857Z,22.97
2018-11-23T01:06:29.777Z,21.77
2018-11-23T01:08:58.570Z,23.47
2018-11-23T01:11:27.764Z,21.57
2018-11-23T01:13:56.605Z,21.53
2018-11-23T01:16:25.455Z,20.43
2018-11-23T01:18:54.226Z,19.57
2018-11-23T01:21:27.813Z,22.00
2018-11-23T01:23:56.619Z,20.37
2018-11-23T01:26:25.490Z,20.63
2018-11-23T01:28:54.913Z,17.60
2018-11-23T01:31:23.775Z,17.57
2018-11-23T01:33:52.574Z,16.93
2018-11-23T01:36:21.438Z,17.27
2018-11-23T01:38:56.792Z,16.03
2018-11-23T01:41:25.584Z,13.90
2018-11-23T01:43:54.348Z,15.17
2018-11-23T01:46:23.142Z,14.50
2018-11-23T01:48:51.933Z,14.87
2018-11-23T01:51:20.676Z,15.13
2018-11-23T01:53:49.438Z,14.00
2018-11-23T01:56:18.347Z,15.53
2018-11-23T01:58:47.194Z,14.57
2018-11-23T02:01:16.009Z,14.60
2018-11-23T02:03:44.807Z,16.67
2018-11-23T02:06:13.602Z,16.93
2018-11-23T02:08:42.382Z,15.70
2018-11-23T02:11:11.168Z,16.57
2018-11-23T02:13:39.970Z,16.67
2018-11-23T02:16:08.744Z,15.07
2018-11-23T02:18:37.581Z,14.50
2018-11-23T02:21:06.686Z,15.33
2018-11-23T02:23:35.528Z,15.43
2018-11-23T02:26:04.455Z,13.17
2018-11-23T02:28:33.307Z,14.27
2018-11-23T02:31:08.485Z,14.07
2018-11-23T02:33:39.653Z,14.13
2018-11-23T02:36:09.432Z,14.90
2018-11-23T02:38:38.352Z,15.63
2018-11-23T02:41:07.081Z,15.30
2018-11-23T02:43:35.854Z,14.00
2018-11-23T02:46:05.005Z,16.00
2018-11-23T02:48:33.769Z,20.00
2018-11-23T02:51:02.591Z,22.90
2018-11-23T02:53:31.349Z,22.77
2018-11-23T02:56:00.127Z,20.27
2018-11-23T02:58:28.927Z,20.80
2018-11-23T03:00:57.738Z,24.13
2018-11-23T03:03:26.592Z,24.10
2018-11-23T03:05:55.386Z,23.07
2018-11-23T03:08:24.148Z,20.20
2018-11-23T03:10:53.008Z,17.33
2018-11-23T03:13:21.934Z,16.77
2018-11-23T03:15:50.760Z,17.27
2018-11-23T03:18:19.617Z,15.57
2018-11-23T03:20:48.576Z,26.37
2018-11-23T03:23:17.414Z,22.63
2018-11-23T03:25:46.262Z,20.20
2018-11-23T03:28:15.059Z,19.10
2018-11-23T03:30:44.275Z,19.67
2018-11-23T03:33:13.061Z,16.83
2018-11-23T03:35:42.075Z,17.33
2018-11-23T03:38:11.701Z,16.53
2018-11-23T03:40:40.561Z,14.43
2018-11-23T03:43:09.403Z,17.23
2018-11-23T03:45:39.364Z,17.37
2018-11-23T03:48:08.619Z,18.03
2018-11-23T03:50:37.479Z,19.10
2018-11-23T03:53:06.351Z,17.30
2018-11-23T03:55:35.171Z,17.47
2018-11-23T03:58:04.059Z,19.23
2018-11-23T04:00:32.802Z,17.60
2018-11-23T04:03:01.570Z,17.50
2018-11-23T04:05:30.533Z,16.40
2018-11-23T04:07:59.449Z,17.03
2018-11-23T04:10:28.293Z,17.63
2018-11-23T04:12:57.080Z,16.70
2018-11-23T04:15:25.964Z,18.40
2018-11-23T04:17:54.827Z,17.23
2018-11-23T04:20:23.620Z,16.93
2018-11-23T04:22:52.436Z,16.60
2018-11-23T04:25:21.232Z,15.67
2018-11-23T04:27:50.650Z,16.70
2018-11-23T04:30:20.416Z,18.63
2018-11-23T04:32:49.419Z,17.40
2018-11-23T04:35:22.018Z,16.60
2018-11-23T04:37:53.619Z,16.47
2018-11-23T04:40:22.524Z,18.77
2018-11-23T04:42:51.369Z,25.53
2018-11-23T04:45:20.403Z,27.47
2018-11-23T04:47:49.215Z,29.60
2018-11-23T04:50:18.177Z,25.87
2018-11-23T04:52:47.021Z,27.23
2018-11-23T04:55:15.879Z,18.87
2018-11-23T04:57:45.005Z,19.13
2018-11-23T05:00:16.089Z,16.93
2018-11-23T05:02:45.501Z,18.50
2018-11-23T05:05:14.685Z,16.40
2018-11-23T05:07:45.262Z,18.50
2018-11-23T05:10:15.135Z,16.27
2018-11-23T05:12:45.667Z,17.17
2018-11-23T05:15:16.010Z,18.00
2018-11-23T05:17:44.996Z,23.10
2018-11-23T05:20:14.495Z,20.83
2018-11-23T05:22:43.612Z,18.77
2018-11-23T05:25:13.365Z,20.17
2018-11-23T05:27:42.211Z,18.13
2018-11-23T05:30:14.514Z,18.47
2018-11-23T05:32:43.946Z,16.63
2018-11-23T05:35:14.158Z,16.67
2018-11-23T05:37:43.036Z,18.37
2018-11-23T05:40:14.428Z,18.03
2018-11-23T05:42:44.145Z,18.10
2018-11-23T05:45:18.261Z,18.80
2018-11-23T05:47:47.318Z,18.27
2018-11-23T05:50:17.998Z,20.20
2018-11-23T05:52:46.981Z,22.03
2018-11-23T05:55:15.764Z,25.20
2018-11-23T05:57:44.654Z,25.90
2018-11-23T06:00:17.990Z,22.43
2018-11-23T06:02:48.099Z,25.90
2018-11-23T06:05:17.077Z,25.10
2018-11-23T06:07:45.906Z,25.80
2018-11-23T06:10:16.380Z,24.23
2018-11-23T06:12:45.173Z,25.33
2018-11-23T06:15:16.368Z,25.00
2018-11-23T06:17:45.641Z,24.80
2018-11-23T06:20:16.193Z,24.90
2018-11-23T06:22:46.070Z,22.40
2018-11-23T06:25:48.286Z,22.33
2018-11-23T06:28:17.131Z,30.10
2018-11-23T06:30:46.024Z,31.67
2018-11-23T06:33:32.329Z,30.83
2018-11-23T06:36:01.202Z,26.80
2018-11-23T06:38:30.358Z,32.73
2018-11-23T06:40:59.444Z,30.20
2018-11-23T06:43:28.359Z,32.60
2018-11-23T06:45:58.108Z,30.93
2018-11-23T06:48:27.026Z,29.83
2018-11-23T06:50:56.235Z,28.67
2018-11-23T06:53:25.229Z,28.70
2018-11-23T06:55:54.248Z,28.53
2018-11-23T06:58:23.312Z,24.57
2018-11-23T07:00:52.145Z,24.47
2018-11-23T07:03:20.957Z,26.10
2018-11-23T07:05:49.804Z,27.33
2018-11-23T07:08:18.619Z,37.43
2018-11-23T07:10:47.536Z,33.77
2018-11-23T07:13:16.413Z,36.03
2018-11-23T07:15:45.610Z,40.13
2018-11-23T07:18:14.422Z,36.80
2018-11-23T07:20:43.280Z,36.77
2018-11-23T07:23:12.099Z,38.47
2018-11-23T07:25:40.844Z,36.83
2018-11-23T07:28:15.468Z,37.33
2018-11-23T07:30:38.646Z,39.37
2018-11-23T07:33:07.519Z,38.70
2018-11-23T07:35:36.373Z,36.43
2018-11-23T07:38:05.549Z,36.63
2018-11-23T07:40:46.855Z,37.37
2018-11-23T07:43:15.748Z,37.70
2018-11-23T07:45:44.615Z,40.57
2018-11-23T07:48:13.489Z,40.00
2018-11-23T07:50:42.327Z,42.17
2018-11-23T07:53:11.509Z,34.53
2018-11-23T07:55:40.343Z,35.97
2018-11-23T07:58:10.005Z,34.17
2018-11-23T08:00:38.858Z,33.40
2018-11-23T08:03:07.657Z,31.73
2018-11-23T08:05:36.510Z,34.57
2018-11-23T08:08:06.384Z,34.37
2018-11-23T08:10:34.344Z,31.73
2018-11-23T08:13:03.207Z,31.37
2018-11-23T08:15:32.026Z,32.87
2018-11-23T08:18:00.852Z,31.43
2018-11-23T08:20:29.707Z,35.07
2018-11-23T08:22:58.551Z,31.73
2018-11-23T08:25:27.505Z,32.40
2018-11-23T08:27:57.227Z,31.63
2018-11-23T08:30:28.352Z,34.17
2018-11-23T08:32:57.534Z,31.20
2018-11-23T08:35:26.367Z,32.87
2018-11-23T08:37:55.155Z,37.10
2018-11-23T08:40:25.374Z,42.17
2018-11-23T08:42:54.733Z,41.23
2018-11-23T08:45:24.854Z,38.73
2018-11-23T08:47:53.712Z,41.77
2018-11-23T08:50:24.720Z,44.20
2018-11-23T08:52:53.577Z,47.27
2018-11-23T08:55:22.681Z,44.93
2018-11-23T08:57:51.561Z,44.87
2018-11-23T09:00:28.064Z,40.73
2018-11-23T09:02:58.584Z,38.73
2018-11-23T09:05:27.492Z,36.93
2018-11-23T09:07:57.110Z,39.50
2018-11-23T09:10:27.600Z,39.73
2018-11-23T09:12:58.002Z,42.13
2018-11-23T09:15:26.880Z,40.73
2018-11-23T09:17:55.738Z,40.20
2018-11-23T09:20:24.646Z,42.63
2018-11-23T09:22:53.465Z,40.73
2018-11-23T09:25:23.337Z,42.07
2018-11-23T09:27:52.197Z,42.93
2018-11-23T09:30:23.447Z,42.13
2018-11-23T09:32:53.123Z,40.53
2018-11-23T09:35:21.955Z,42.87
2018-11-23T09:37:51.288Z,41.67
2018-11-23T09:40:21.724Z,43.07
2018-11-23T09:42:50.870Z,42.10
2018-11-23T09:45:22.038Z,42.60
2018-11-23T09:47:52.269Z,43.43
2018-11-23T09:50:22.225Z,42.53
2018-11-23T09:52:52.302Z,44.27
2018-11-23T09:55:21.810Z,45.13
2018-11-23T09:57:50.640Z,41.13
2018-11-23T10:00:21.541Z,39.77
2018-11-23T10:02:51.527Z,39.83
2018-11-23T10:05:22.125Z,41.17
2018-11-23T10:07:52.409Z,40.47
2018-11-23T10:10:21.956Z,42.97
2018-11-23T10:12:51.149Z,40.00
2018-11-23T10:15:20.689Z,42.00
2018-11-23T10:17:49.573Z,42.70
2018-11-23T10:20:20.792Z,43.37
2018-11-23T10:22:49.626Z,40.40
2018-11-23T10:25:21.807Z,43.47
2018-11-23T10:27:50.620Z,43.63
2018-11-23T10:30:22.255Z,43.00
2018-11-23T10:32:52.271Z,42.20
2018-11-23T10:35:23.941Z,45.33
2018-11-23T10:37:54.581Z,42.70
2018-11-23T10:40:24.684Z,47.93
2018-11-23T10:42:53.507Z,45.97
2018-11-23T10:45:24.887Z,44.37
2018-11-23T10:47:54.381Z,45.63
2018-11-23T10:50:24.507Z,44.00
2018-11-23T10:52:53.351Z,42.73
2018-11-23T10:55:23.553Z,43.93
2018-11-23T10:57:52.956Z,44.03
2018-11-23T11:00:27.094Z,46.00
2018-11-23T11:03:01.355Z,42.77
2018-11-23T11:05:35.388Z,41.67
2018-11-23T11:08:04.989Z,42.97
2018-11-23T11:10:33.785Z,42.97
2018-11-23T11:13:02.664Z,43.63
2018-11-23T11:15:31.617Z,44.50
2018-11-23T11:18:00.379Z,41.20
2018-11-23T11:20:29.176Z,42.97
2018-11-23T11:22:57.943Z,43.63
2018-11-23T11:25:26.798Z,45.47
2018-11-23T11:27:55.574Z,46.70
2018-11-23T11:30:24.427Z,45.03
2018-11-23T11:32:53.235Z,48.67
2018-11-23T11:35:22.024Z,48.30
2018-11-23T11:37:50.875Z,47.90
2018-11-23T11:40:20.733Z,47.40
2018-11-23T11:42:49.497Z,50.37
2018-11-23T11:45:19.209Z,48.47
2018-11-23T11:47:48.499Z,47.17
2018-11-23T11:50:17.394Z,47.00
2018-11-23T11:52:47.710Z,47.17
2018-11-23T11:55:17.946Z,45.07
2018-11-23T11:57:47.505Z,46.40
2018-11-23T12:00:19.801Z,45.27
2018-11-23T12:02:48.920Z,47.20
2018-11-23T12:05:18.350Z,46.17
2018-11-23T12:07:47.196Z,47.10
2018-11-23T12:10:22.248Z,48.67
2018-11-23T12:12:51.693Z,47.27
2018-11-23T12:15:20.519Z,46.13
2018-11-23T12:17:49.362Z,48.10
2018-11-23T12:20:20.680Z,46.30
2018-11-23T12:22:49.694Z,47.70
2018-11-23T12:25:19.216Z,48.13
2018-11-23T12:27:48.049Z,49.10
2018-11-23T12:30:18.268Z,47.17
2018-11-23T12:32:48.317Z,46.50
2018-11-23T12:35:18.008Z,46.30
2018-11-23T12:37:46.922Z,45.77
2018-11-23T12:40:17.318Z,46.60
2018-11-23T12:42:46.767Z,46.60
2018-11-23T12:45:17.366Z,46.40
2018-11-23T12:47:46.311Z,45.77
2018-11-23T12:50:17.293Z,47.57
2018-11-23T12:52:46.283Z,49.57
2018-11-23T12:55:15.616Z,45.33
2018-11-23T12:57:44.577Z,48.40
2018-11-23T13:00:29.705Z,45.97
2018-11-23T13:03:00.076Z,49.20
2018-11-23T13:05:29.792Z,48.10
2018-11-23T13:07:59.927Z,49.67
2018-11-23T13:10:29.126Z,46.27
2018-11-23T13:12:58.579Z,49.77
2018-11-23T13:15:27.568Z,45.23
2018-11-23T13:17:56.928Z,48.97
2018-11-23T13:20:25.779Z,48.87
2018-11-23T13:22:54.658Z,51.53
2018-11-23T13:25:25.081Z,47.63
2018-11-23T13:27:53.973Z,47.63
2018-11-23T13:30:24.360Z,49.43
2018-11-23T13:32:53.393Z,48.67
2018-11-23T13:35:22.616Z,47.13
2018-11-23T13:37:51.458Z,47.53
2018-11-23T13:40:22.479Z,50.57
2018-11-23T13:42:51.947Z,53.10
2018-11-23T13:45:22.159Z,53.57
2018-11-23T13:47:51.019Z,52.30
2018-11-23T13:50:21.115Z,50.37
2018-11-23T13:52:50.936Z,53.70
2018-11-23T13:55:19.773Z,52.93
2018-11-23T13:57:48.599Z,51.10
2018-11-23T14:00:20.430Z,50.50
2018-11-23T14:02:49.391Z,46.77
2018-11-23T14:05:20.385Z,47.03
2018-11-23T14:07:50.526Z,41.57
2018-11-23T14:10:21.154Z,40.50
2018-11-23T14:12:50.386Z,40.43
2018-11-23T14:15:20.748Z,40.13
2018-11-23T14:17:50.588Z,40.57
2018-11-23T14:20:20.090Z,36.63
2018-11-23T14:22:49.316Z,38.30
2018-11-23T14:25:20.891Z,38.50
2018-11-23T14:27:50.899Z,37.00
2018-11-23T14:30:21.584Z,39.80
2018-11-23T14:32:50.654Z,39.43
2018-11-23T14:35:22.712Z,39.27
2018-11-23T14:37:52.253Z,37.87
2018-11-23T14:40:21.125Z,37.17
2018-11-23T14:42:51.163Z,38.50
2018-11-23T14:45:25.868Z,38.80
2018-11-23T14:47:56.049Z,43.53
2018-11-23T14:50:27.569Z,43.20
2018-11-23T14:52:57.122Z,44.97
2018-11-23T14:55:26.886Z,47.13
2018-11-23T14:57:56.597Z,45.83
2018-11-23T15:00:28.828Z,47.00
2018-11-23T15:02:59.162Z,44.23
2018-11-23T15:05:28.047Z,47.60
2018-11-23T15:07:56.934Z,42.00
2018-11-23T15:10:27.127Z,47.40
2018-11-23T15:12:57.358Z,42.23
2018-11-23T15:15:27.657Z,48.27
2018-11-23T15:17:57.160Z,46.33
2018-11-23T15:20:30.773Z,48.87
2018-11-23T15:23:02.030Z,49.73
2018-11-23T15:25:36.261Z,43.70
2018-11-23T15:30:49.869Z,42.07
2018-11-23T15:33:19.285Z,46.83
2018-11-23T15:35:48.122Z,43.93
2018-11-23T15:38:18.543Z,41.03
2018-11-23T15:40:47.601Z,44.70
2018-11-23T15:43:18.299Z,42.43
2018-11-23T15:45:47.190Z,41.80
2018-11-23T15:48:22.341Z,44.03
2018-11-23T15:50:51.135Z,43.07
2018-11-23T15:53:19.925Z,45.03
2018-11-23T15:55:48.783Z,44.13
2018-11-23T15:58:18.459Z,42.50
2018-11-23T16:00:48.577Z,43.63
2018-11-23T16:03:17.877Z,42.00
2018-11-23T16:05:46.697Z,43.50
2018-11-23T16:08:18.340Z,42.87
2018-11-23T16:10:47.561Z,43.63
2018-11-23T16:13:16.394Z,42.33
2018-11-23T16:15:45.287Z,40.27
2018-11-23T16:18:14.345Z,41.40
2018-11-23T16:20:44.800Z,43.97
2018-11-23T16:23:18.094Z,44.57
2018-11-23T16:25:48.027Z,45.80
2018-11-23T16:28:16.930Z,41.87
2018-11-23T16:30:47.227Z,44.20
2018-11-23T16:33:18.878Z,40.27
2018-11-23T16:35:47.714Z,39.87
2018-11-23T16:38:18.320Z,38.53
2018-11-23T16:40:50.922Z,40.60
2018-11-23T16:43:19.814Z,39.67
2018-11-23T16:45:48.929Z,39.17
2018-11-23T16:48:18.629Z,39.13
2018-11-23T16:50:47.554Z,38.63
2018-11-23T16:53:16.431Z,37.90
2018-11-23T16:55:45.291Z,37.63
2018-11-23T16:58:14.616Z,37.93
2018-11-23T17:00:44.882Z,37.40
2018-11-23T17:03:15.116Z,34.70
2018-11-23T17:05:46.383Z,36.33
2018-11-23T17:08:15.356Z,39.37
2018-11-23T17:10:44.291Z,39.23
2018-11-23T17:13:13.084Z,39.43
2018-11-23T17:15:41.903Z,37.90
2018-11-23T17:18:11.859Z,36.93
2018-11-23T17:20:41.300Z,39.77
2018-11-23T17:23:11.129Z,36.80
2018-11-23T17:25:39.966Z,40.77
2018-11-23T17:28:10.976Z,40.70
2018-11-23T17:30:39.074Z,39.67
2018-11-23T17:33:07.930Z,37.60
2018-11-23T17:35:36.818Z,54.17
2018-11-23T17:38:06.210Z,61.50
2018-11-23T17:40:36.741Z,66.20
2018-11-23T17:43:06.159Z,64.73
2018-11-23T17:45:35.171Z,66.77
2018-11-23T17:48:04.029Z,67.90
2018-11-23T17:50:34.189Z,71.10
2018-11-23T17:53:02.996Z,71.27
2018-11-23T17:55:31.829Z,69.13
2018-11-23T17:58:00.681Z,70.93
2018-11-23T18:00:38.505Z,67.70
2018-11-23T18:03:01.906Z,69.43
2018-11-23T18:05:31.634Z,71.27
2018-11-23T18:08:01.126Z,72.80
2018-11-23T18:10:31.276Z,74.97
2018-11-23T18:13:06.695Z,71.83
2018-11-23T18:15:36.012Z,70.80
2018-11-23T18:18:06.456Z,73.03
2018-11-23T18:20:35.593Z,72.00
2018-11-23T18:23:05.502Z,69.80
2018-11-23T18:25:36.101Z,69.53
2018-11-23T18:28:04.966Z,63.97
2018-11-23T18:30:34.869Z,64.17
2018-11-23T18:33:05.456Z,63.37
2018-11-23T18:35:34.297Z,66.03
2018-11-23T18:38:03.129Z,66.63
2018-11-23T18:40:37.131Z,67.57
2018-11-23T18:43:00.911Z,69.77
2018-11-23T18:45:29.762Z,67.90
2018-11-23T18:47:58.570Z,72.37
2018-11-23T18:50:27.336Z,70.07
2018-11-23T18:52:56.123Z,63.50
2018-11-23T18:55:25.016Z,62.23
2018-11-23T18:57:53.875Z,60.00
2018-11-23T19:00:23.023Z,62.07
2018-11-23T19:02:51.829Z,58.30
2018-11-23T19:05:22.966Z,56.07
2018-11-23T19:07:51.717Z,57.00
2018-11-23T19:10:20.622Z,54.43
2018-11-23T19:12:49.481Z,54.73
2018-11-23T19:15:25.348Z,55.33
2018-11-23T19:17:48.105Z,50.63
2018-11-23T19:20:20.272Z,49.03
2018-11-23T19:22:51.331Z,50.70
2018-11-23T19:25:20.188Z,48.77
2018-11-23T19:27:49.059Z,46.43
2018-11-23T19:30:27.716Z,45.53
2018-11-23T19:32:49.008Z,47.07
2018-11-23T19:35:17.971Z,46.43
2018-11-23T19:37:46.912Z,47.07
2018-11-23T19:40:16.728Z,44.00
2018-11-23T19:42:45.835Z,42.50
2018-11-23T19:45:15.727Z,44.57
2018-11-23T19:47:44.709Z,44.10
2018-11-23T19:50:17.141Z,56.17
2018-11-23T19:52:46.127Z,67.73
2018-11-23T19:55:16.331Z,65.17
2018-11-23T19:57:45.127Z,60.27
2018-11-23T20:00:23.150Z,62.17
2018-11-23T20:02:52.095Z,57.57
2018-11-23T20:05:21.076Z,58.33
2018-11-23T20:07:51.524Z,52.20
2018-11-23T20:10:21.721Z,43.37
2018-11-23T20:12:51.964Z,41.40
2018-11-23T20:15:20.981Z,40.67
2018-11-23T20:17:49.788Z,37.70
2018-11-23T20:20:18.673Z,34.57
2018-11-23T20:22:48.476Z,37.47
2018-11-23T20:25:18.612Z,35.60
2018-11-23T20:27:48.457Z,36.97
2018-11-23T20:30:18.195Z,34.70
2018-11-23T20:32:47.413Z,34.47
2018-11-23T20:35:17.337Z,35.60
2018-11-23T20:37:46.178Z,34.07
2018-11-23T20:40:16.078Z,34.83
2018-11-23T20:42:45.103Z,34.23
2018-11-23T20:45:14.542Z,34.33
2018-11-23T20:47:43.405Z,36.90
2018-11-23T20:50:13.988Z,36.00
2018-11-23T20:52:42.784Z,33.73
2018-11-23T20:55:14.503Z,35.33
2018-11-23T20:57:43.331Z,33.07
2018-11-23T21:00:15.856Z,34.53
2018-11-23T21:02:45.195Z,32.97
2018-11-23T21:05:15.198Z,32.97
2018-11-23T21:07:44.001Z,31.87
2018-11-23T21:10:20.080Z,31.83
2018-11-23T21:12:43.951Z,34.57
2018-11-23T21:15:23.379Z,36.17
2018-11-23T21:17:52.276Z,38.10
2018-11-23T21:20:21.175Z,42.43
2018-11-23T21:22:50.026Z,40.37
2018-11-23T21:25:18.817Z,37.57
2018-11-23T21:27:47.619Z,33.87
2018-11-23T21:30:21.245Z,32.83
2018-11-23T21:32:50.446Z,29.27
2018-11-23T21:35:19.832Z,29.30
2018-11-23T21:37:49.114Z,25.80
2018-11-23T21:40:18.333Z,25.80
2018-11-23T21:42:47.260Z,24.93
2018-11-23T21:45:17.004Z,24.40
2018-11-23T21:47:45.870Z,25.30
2018-11-23T21:50:16.701Z,24.13
2018-11-23T21:52:45.585Z,26.07
2018-11-23T21:55:16.546Z,25.07
2018-11-23T21:57:45.745Z,25.17
2018-11-23T22:00:15.952Z,24.50
2018-11-23T22:02:45.267Z,23.53
2018-11-23T22:05:14.127Z,24.97
2018-11-23T22:07:42.984Z,23.97
2018-11-23T22:10:19.263Z,24.00
2018-11-23T22:12:48.157Z,23.40
2018-11-23T22:15:19.303Z,22.83
2018-11-23T22:17:48.599Z,23.07
2018-11-23T22:20:18.507Z,25.97
2018-11-23T22:22:47.337Z,23.63
2018-11-23T22:25:17.551Z,24.50
2018-11-23T22:27:46.418Z,24.77
2018-11-23T22:30:17.569Z,22.77
2018-11-23T22:32:46.448Z,21.97
2018-11-23T22:35:15.255Z,22.50
2018-11-23T22:37:44.538Z,21.60
2018-11-23T22:40:14.900Z,21.20
2018-11-23T22:42:46.483Z,18.80
2018-11-23T22:45:16.051Z,17.10
2018-11-23T22:47:44.986Z,17.47
2018-11-23T22:50:16.045Z,18.13
2018-11-23T22:52:44.856Z,20.33
2018-11-23T22:55:15.161Z,20.70
2018-11-23T22:57:43.995Z,18.83
2018-11-23T23:00:20.276Z,18.60
2018-11-23T23:02:49.745Z,17.30
2018-11-23T23:05:19.594Z,17.63
2018-11-23T23:07:48.386Z,13.97
2018-11-23T23:10:17.225Z,13.60
2018-11-23T23:12:46.032Z,17.20
2018-11-23T23:15:14.844Z,17.93
2018-11-23T23:17:43.747Z,17.17
2018-11-23T23:20:14.783Z,18.13
2018-11-23T23:22:43.696Z,17.17
2018-11-23T23:25:13.561Z,16.87
2018-11-23T23:27:42.352Z,14.43
2018-11-23T23:30:12.319Z,13.63
2018-11-23T23:32:41.175Z,14.20
2018-11-23T23:35:11.221Z,14.07
2018-11-23T23:37:40.394Z,14.57
2018-11-23T23:40:12.077Z,15.20
2018-11-23T23:42:40.882Z,15.53
2018-11-23T23:45:12.431Z,14.40
2018-11-23T23:47:41.324Z,15.60
2018-11-23T23:50:11.506Z,12.83
2018-11-23T23:52:40.329Z,12.27
2018-11-23T23:55:09.925Z,12.97
2018-11-23T23:57:39.525Z,13.80
